createdAt,value
2023-05-18T00:00:01.530Z,6.40
2023-05-18T00:05:04.825Z,6.40
2023-05-18T00:10:07.873Z,6.50
2023-05-18T00:15:10.525Z,6.20
2023-05-18T00:20:12.427Z,6.50
2023-05-18T00:25:14.266Z,6.10
2023-05-18T00:30:16.272Z,5.90
2023-05-18T00:35:18.195Z,5.80
2023-05-18T00:40:21.163Z,5.90
2023-05-18T00:45:23.115Z,6.10
2023-05-18T00:50:25.245Z,5.70
2023-05-18T00:55:28.663Z,6.00
2023-05-18T01:00:31.179Z,5.80
2023-05-18T01:05:33.125Z,5.80
2023-05-18T01:10:39.664Z,5.80
2023-05-18T01:15:44.273Z,5.60
2023-05-18T01:21:14.009Z,5.30
2023-05-18T01:26:17.074Z,5.10
2023-05-18T01:31:20.470Z,5.20
2023-05-18T01:36:22.565Z,5.10
2023-05-18T01:41:26.267Z,5.20
2023-05-18T01:46:53.485Z,5.20
2023-05-18T01:51:58.211Z,5.40
2023-05-18T01:57:01.376Z,5.60
2023-05-18T02:02:04.275Z,5.40
2023-05-18T02:07:06.302Z,5.40
2023-05-18T02:12:08.395Z,5.40
2023-05-18T02:17:10.286Z,5.30
2023-05-18T02:22:12.431Z,5.30
2023-05-18T02:27:15.373Z,5.40
2023-05-18T02:32:17.264Z,5.50
2023-05-18T02:37:23.049Z,5.60
2023-05-18T02:42:25.031Z,5.50
2023-05-18T02:47:26.968Z,5.60
2023-05-18T02:52:29.069Z,5.60
2023-05-18T02:57:32.765Z,5.50
2023-05-18T03:02:40.993Z,5.60
2023-05-18T03:07:50.634Z,5.70
2023-05-18T03:12:54.085Z,5.70
2023-05-18T03:17:56.129Z,5.60
2023-05-18T03:22:58.303Z,5.30
2023-05-18T03:28:00.274Z,5.20
2023-05-18T03:33:03.831Z,5.30
2023-05-18T03:38:06.790Z,5.10
2023-05-18T03:43:10.502Z,5.10
2023-05-18T03:48:14.443Z,4.80
2023-05-18T03:53:19.213Z,4.90
2023-05-18T03:58:21.334Z,5.10
2023-05-18T04:03:25.302Z,5.10
2023-05-18T04:08:30.322Z,5.10
2023-05-18T04:13:33.662Z,5.20
2023-05-18T04:18:36.393Z,5.20
2023-05-18T04:23:39.218Z,5.40
2023-05-18T04:28:43.231Z,5.40
2023-05-18T04:33:46.778Z,5.50
2023-05-18T04:38:50.840Z,5.30
2023-05-18T04:43:53.817Z,5.50
2023-05-18T04:48:58.069Z,5.60
2023-05-18T04:54:01.264Z,5.50
2023-05-18T04:59:04.259Z,5.60
2023-05-18T05:04:06.350Z,5.90
2023-05-18T05:09:08.412Z,6.20
2023-05-18T05:14:10.630Z,6.40
2023-05-18T05:19:12.498Z,7.10
2023-05-18T05:24:14.348Z,8.80
2023-05-18T05:29:16.322Z,9.20
2023-05-18T05:34:19.055Z,8.70
2023-05-18T05:39:21.170Z,8.80
2023-05-18T05:44:24.391Z,9.20
2023-05-18T05:49:26.209Z,10.00
2023-05-18T05:54:28.000Z,10.50
2023-05-18T05:59:30.072Z,11.00
2023-05-18T06:04:32.146Z,12.00
2023-05-18T06:09:34.596Z,12.20
2023-05-18T06:14:36.543Z,12.20
2023-05-18T06:19:38.970Z,11.90
2023-05-18T06:24:41.052Z,11.80
2023-05-18T06:30:05.467Z,11.20
2023-05-18T06:35:15.543Z,10.90
2023-05-18T06:40:17.446Z,11.30
2023-05-18T06:45:19.463Z,11.50
2023-05-18T06:50:23.558Z,11.70
2023-05-18T06:55:25.843Z,12.40
2023-05-18T07:00:28.140Z,13.00
2023-05-18T07:05:31.816Z,13.40
2023-05-18T07:10:35.384Z,13.50
2023-05-18T07:15:37.309Z,13.50
2023-05-18T07:20:39.276Z,13.80
2023-05-18T07:25:41.194Z,14.10
2023-05-18T07:30:43.066Z,13.90
2023-05-18T07:35:45.181Z,13.60
2023-05-18T07:40:47.003Z,13.40
2023-05-18T07:45:48.867Z,13.50
2023-05-18T07:50:50.703Z,13.70
2023-05-18T07:55:52.654Z,13.90
2023-05-18T08:00:54.427Z,13.90
2023-05-18T08:05:56.195Z,14.30
2023-05-18T08:10:59.080Z,14.40
2023-05-18T08:16:11.097Z,14.70
2023-05-18T08:21:14.283Z,14.70
2023-05-18T08:26:16.101Z,14.60
2023-05-18T08:31:17.942Z,14.50
2023-05-18T08:36:19.737Z,14.40
2023-05-18T08:41:30.280Z,14.40
2023-05-18T08:46:39.631Z,14.30
2023-05-18T08:51:46.400Z,14.10
2023-05-18T08:56:48.760Z,14.00
2023-05-18T09:01:52.050Z,14.30
2023-05-18T09:06:55.035Z,14.60
2023-05-18T09:11:57.274Z,14.60
2023-05-18T09:16:59.157Z,14.80
2023-05-18T09:22:01.066Z,15.30
2023-05-18T09:27:02.916Z,15.60
2023-05-18T09:32:10.927Z,15.60
2023-05-18T09:37:15.814Z,15.60
2023-05-18T09:42:17.608Z,15.30
2023-05-18T09:47:19.632Z,15.30
2023-05-18T09:52:21.480Z,15.20
2023-05-18T09:57:23.294Z,15.20
2023-05-18T10:02:25.870Z,15.20
2023-05-18T10:07:27.734Z,15.10
2023-05-18T10:12:29.566Z,15.10
2023-05-18T10:17:33.890Z,15.30
2023-05-18T10:22:36.921Z,15.40
2023-05-18T10:27:40.176Z,15.30
2023-05-18T10:32:43.431Z,15.40
2023-05-18T10:37:47.869Z,15.50
2023-05-18T10:42:52.022Z,15.50
2023-05-18T10:47:55.242Z,15.20
2023-05-18T10:52:59.372Z,15.40
2023-05-18T10:58:07.334Z,15.30
2023-05-18T11:03:13.660Z,15.30
2023-05-18T11:08:26.788Z,15.70
2023-05-18T11:13:33.312Z,15.70
2023-05-18T11:18:49.291Z,15.90
2023-05-18T11:24:13.216Z,16.00
2023-05-18T11:29:21.901Z,16.40
2023-05-18T11:34:46.038Z,16.30
2023-05-18T11:40:00.454Z,16.60
2023-05-18T11:45:08.782Z,16.50
2023-05-18T11:50:12.210Z,16.60
2023-05-18T11:55:16.451Z,16.60
2023-05-18T12:00:20.454Z,16.70
2023-05-18T12:05:22.894Z,16.90
2023-05-18T12:10:25.688Z,17.20
2023-05-18T12:15:28.961Z,17.60
2023-05-18T12:20:31.334Z,17.70
2023-05-18T12:25:33.716Z,17.80
2023-05-18T12:30:36.594Z,17.70
2023-05-18T12:35:38.521Z,17.60
2023-05-18T12:40:47.247Z,17.20
2023-05-18T12:45:50.069Z,16.90
2023-05-18T12:50:55.638Z,16.70
2023-05-18T12:56:04.208Z,16.60
2023-05-18T13:01:10.922Z,16.40
2023-05-18T13:06:13.154Z,16.40
2023-05-18T13:11:17.790Z,16.50
2023-05-18T13:16:19.585Z,16.40
2023-05-18T13:21:21.447Z,16.50
2023-05-18T13:26:24.701Z,16.50
2023-05-18T13:31:26.668Z,16.50
2023-05-18T13:36:29.907Z,16.50
2023-05-18T13:41:31.898Z,16.40
2023-05-18T13:46:33.991Z,16.30
2023-05-18T13:51:36.091Z,16.20
2023-05-18T13:56:37.902Z,16.20
2023-05-18T14:01:42.366Z,16.20
2023-05-18T14:06:44.701Z,16.20
2023-05-18T14:11:46.669Z,16.20
2023-05-18T14:16:48.719Z,16.20
2023-05-18T14:21:51.048Z,16.30
2023-05-18T14:26:53.633Z,16.30
2023-05-18T14:31:55.785Z,16.40
2023-05-18T14:36:57.680Z,16.40
2023-05-18T14:41:59.518Z,16.40
2023-05-18T14:47:01.653Z,16.40
2023-05-18T14:52:03.973Z,16.30
2023-05-18T14:57:05.831Z,16.40
2023-05-18T15:02:08.196Z,16.40
2023-05-18T15:07:10.250Z,16.40
2023-05-18T15:12:12.144Z,16.40
2023-05-18T15:17:15.032Z,16.30
2023-05-18T15:22:16.855Z,16.20
2023-05-18T15:27:18.824Z,16.20
2023-05-18T15:32:20.932Z,16.10
2023-05-18T15:37:22.800Z,16.10
2023-05-18T15:42:25.332Z,16.00
2023-05-18T15:47:27.274Z,16.00
2023-05-18T15:52:29.450Z,15.90
2023-05-18T15:57:31.642Z,15.90
2023-05-18T16:02:33.627Z,15.80
2023-05-18T16:07:35.551Z,15.80
2023-05-18T16:12:37.331Z,15.70
2023-05-18T16:17:39.113Z,15.70
2023-05-18T16:22:41.080Z,15.70
2023-05-18T16:27:42.894Z,15.70
2023-05-18T16:32:44.870Z,15.60
2023-05-18T16:37:46.815Z,15.60
2023-05-18T16:42:48.951Z,15.50
2023-05-18T16:47:50.974Z,15.40
2023-05-18T16:52:52.794Z,15.30
2023-05-18T16:57:54.948Z,15.20
2023-05-18T17:02:57.119Z,15.10
2023-05-18T17:07:59.002Z,15.00
2023-05-18T17:13:00.838Z,15.00
2023-05-18T17:18:02.939Z,15.00
2023-05-18T17:23:04.811Z,14.80
2023-05-18T17:28:06.721Z,14.70
2023-05-18T17:33:08.518Z,14.70
2023-05-18T17:38:10.395Z,14.50
2023-05-18T17:43:12.235Z,14.40
2023-05-18T17:48:14.056Z,14.30
2023-05-18T17:53:16.298Z,14.20
2023-05-18T17:58:18.152Z,14.20
2023-05-18T18:03:21.183Z,14.10
2023-05-18T18:08:25.052Z,14.00
2023-05-18T18:13:26.912Z,14.00
2023-05-18T18:18:28.718Z,14.00
2023-05-18T18:23:30.660Z,13.90
2023-05-18T18:28:33.469Z,13.80
2023-05-18T18:33:35.413Z,13.70
2023-05-18T18:38:37.259Z,13.70
2023-05-18T18:43:39.849Z,13.60
2023-05-18T18:48:41.755Z,13.50
2023-05-18T18:53:43.547Z,13.50
2023-05-18T18:58:45.625Z,13.40
2023-05-18T19:03:47.459Z,13.40
2023-05-18T19:08:52.011Z,13.30
2023-05-18T19:13:53.825Z,13.30
2023-05-18T19:18:55.870Z,13.20
2023-05-18T19:23:58.776Z,13.20
2023-05-18T19:29:00.897Z,13.20
2023-05-18T19:34:03.318Z,13.10
2023-05-18T19:39:05.242Z,13.00
2023-05-18T19:44:07.158Z,12.90
2023-05-18T19:49:10.167Z,12.80
2023-05-18T19:54:12.501Z,12.80
2023-05-18T19:59:14.302Z,12.70
2023-05-18T20:04:16.178Z,12.70
2023-05-18T20:09:18.079Z,12.60
2023-05-18T20:14:20.061Z,12.60
2023-05-18T20:19:22.170Z,12.50
2023-05-18T20:24:24.980Z,12.50
2023-05-18T20:29:27.055Z,12.40
2023-05-18T20:34:28.978Z,12.40
2023-05-18T20:39:31.110Z,12.30
2023-05-18T20:44:33.074Z,12.30
2023-05-18T20:49:35.181Z,12.30
2023-05-18T20:54:37.057Z,12.30
2023-05-18T20:59:38.980Z,12.20
2023-05-18T21:04:40.803Z,12.10
2023-05-18T21:09:43.033Z,12.10
2023-05-18T21:14:44.870Z,12.10
2023-05-18T21:19:46.877Z,12.10
2023-05-18T21:24:50.592Z,12.00
2023-05-18T21:29:52.456Z,12.00
2023-05-18T21:34:54.245Z,11.90
2023-05-18T21:39:56.080Z,12.00
2023-05-18T21:44:57.876Z,11.90
2023-05-18T21:49:59.709Z,12.00
2023-05-18T21:55:01.551Z,11.90
2023-05-18T22:00:03.881Z,11.90
2023-05-18T22:05:14.399Z,11.80
2023-05-18T22:10:17.988Z,11.90
2023-05-18T22:15:22.382Z,11.90
2023-05-18T22:20:24.556Z,11.90
2023-05-18T22:25:26.747Z,11.80
2023-05-18T22:30:28.786Z,11.90
2023-05-18T22:35:31.056Z,11.90
2023-05-18T22:40:33.254Z,11.90
2023-05-18T22:45:35.357Z,11.90
2023-05-18T22:50:37.186Z,11.80
2023-05-18T22:55:39.372Z,11.80
2023-05-18T23:00:41.282Z,11.90
2023-05-18T23:05:43.838Z,11.90
2023-05-18T23:10:45.680Z,11.80
2023-05-18T23:15:48.830Z,11.80
2023-05-18T23:20:55.515Z,11.80
2023-05-18T23:25:57.425Z,11.70
2023-05-18T23:31:01.281Z,11.60
2023-05-18T23:36:03.967Z,11.60
2023-05-18T23:41:07.047Z,11.40
2023-05-18T23:46:10.415Z,11.50
2023-05-18T23:51:19.240Z,11.60
2023-05-18T23:56:21.736Z,11.60
